Time;durP1;ratioP1;P1;durP2;ratioP2;P2;SDS_P1;SDS_P2;PMS_P1;PMS_P2;Temp;Humidity;BMP_temperature;BMP_pressure;BME280_temperature;BME280_humidity;BME280_pressure;Samples;Min_cycle;Max_cycle;Signal;HPM_P1;HPM_P2
2023/06/12 00:01:03;;;;;;;3.17;2.42;;;21.30;99.90;;;;;;5000015;28;20069;-78
2023/06/12 00:03:29;;;;;;;7.18;2.10;;;21.30;99.90;;;;;;4978644;28;20050;-77
2023/06/12 00:05:59;;;;;;;4.72;2.15;;;21.30;99.90;;;;;;5005998;28;20485;-78
2023/06/12 00:08:30;;;;;;;5.00;2.60;;;21.20;99.90;;;;;;4988328;28;20061;-78
2023/06/12 00:10:56;;;;;;;4.72;2.25;;;21.20;99.90;;;;;;4987511;28;20046;-78
2023/06/12 00:13:22;;;;;;;3.13;1.88;;;21.10;99.90;;;;;;5005453;28;20061;-78
2023/06/12 00:15:48;;;;;;;3.80;2.53;;;21.10;99.90;;;;;;5005531;28;20167;-78
2023/06/12 00:18:14;;;;;;;4.70;2.08;;;21.10;99.90;;;;;;4986932;28;20045;-78
2023/06/12 00:20:40;;;;;;;3.17;2.03;;;21.00;99.90;;;;;;5006102;28;20045;-79
2023/06/12 00:23:06;;;;;;;2.80;1.80;;;21.00;99.90;;;;;;4988396;28;20483;-78
2023/06/12 00:25:32;;;;;;;3.10;2.40;;;20.90;99.90;;;;;;4987334;28;20045;-79
2023/06/12 00:27:58;;;;;;;3.28;2.20;;;20.90;99.90;;;;;;5005826;28;20065;-78
2023/06/12 00:30:23;;;;;;;4.55;2.30;;;20.90;99.90;;;;;;5005437;28;20429;-78
2023/06/12 00:32:49;;;;;;;3.63;1.55;;;20.80;99.90;;;;;;4971223;28;20045;-79
2023/06/12 00:35:21;;;;;;;2.53;2.10;;;20.80;99.90;;;;;;5005400;28;20101;-79
2023/06/12 00:37:47;;;;;;;2.53;1.77;;;20.80;99.90;;;;;;5005726;28;20072;-78
2023/06/12 00:40:13;;;;;;;3.35;1.60;;;20.70;99.90;;;;;;4987679;28;20050;-78
2023/06/12 00:42:45;;;;;;;2.15;1.85;;;20.70;99.90;;;;;;4988622;28;20042;-79
2023/06/12 00:45:15;;;;;;;2.47;1.95;;;20.70;99.90;;;;;;4988399;28;20598;-78
2023/06/12 00:47:42;;;;;;;2.28;1.83;;;20.60;99.90;;;;;;5004855;28;20038;-79
2023/06/12 00:50:12;;;;;;;2.03;1.60;;;20.50;99.90;;;;;;5006060;28;20069;-79
2023/06/12 00:52:41;;;;;;;2.55;1.75;;;20.50;99.90;;;;;;5006102;28;20069;-77
2023/06/12 00:55:07;;;;;;;2.22;1.42;;;20.40;99.90;;;;;;4987939;28;20523;-77
2023/06/12 00:57:32;;;;;;;2.20;1.70;;;20.40;99.90;;;;;;5005195;28;20038;-77
2023/06/12 01:00:01;;;;;;;4.72;1.80;;;20.30;99.90;;;;;;5005073;28;20042;-77
2023/06/12 01:02:26;;;;;;;3.35;2.33;;;20.30;99.90;;;;;;5000957;28;20045;-78
2023/06/12 01:04:52;;;;;;;2.20;1.95;;;20.30;99.90;;;;;;5005618;28;20046;-78
2023/06/12 01:07:38;;;;;;;2.83;1.73;;;20.20;99.90;;;;;;5004874;28;20440;-79
2023/06/12 01:10:22;;;;;;;3.88;1.83;;;20.20;99.90;;;;;;4974550;28;20128;-79
2023/06/12 01:12:49;;;;;;;4.13;2.30;;;20.20;99.90;;;;;;5005047;28;20037;-78
2023/06/12 01:15:15;;;;;;;2.55;2.20;;;20.20;99.90;;;;;;5005101;28;20052;-77
2023/06/12 01:17:41;;;;;;;1.95;1.80;;;20.10;99.90;;;;;;5004913;28;20400;-77
2023/06/12 01:20:11;;;;;;;3.05;1.63;;;20.10;99.90;;;;;;5005163;28;20184;-78
2023/06/12 01:23:11;;;;;;;2.45;1.75;;;20.00;99.90;;;;;;5008365;28;20042;-77
2023/06/12 01:26:02;;;;;;;1.60;1.27;;;20.00;99.90;;;;;;4953990;28;20100;-78
2023/06/12 01:28:46;;;;;;;3.05;1.50;;;19.90;99.90;;;;;;5008506;28;20633;-78
2023/06/12 01:31:35;;;;;;;2.47;1.92;;;19.90;99.90;;;;;;5007858;28;20458;-76
2023/06/12 01:34:07;;;;;;;2.42;1.80;;;19.80;99.90;;;;;;4991859;28;20045;-77
2023/06/12 01:36:37;;;;;;;3.22;1.70;;;19.80;99.90;;;;;;4974793;28;20050;-76
2023/06/12 01:39:04;;;;;;;3.35;1.90;;;19.70;99.90;;;;;;5008874;28;20057;-78
2023/06/12 01:41:34;;;;;;;3.85;2.13;;;19.70;99.90;;;;;;5008321;28;20488;-77
2023/06/12 01:44:08;;;;;;;3.58;1.88;;;19.60;99.90;;;;;;4991252;28;20042;-78
2023/06/12 01:46:33;;;;;;;4.50;1.70;;;19.60;99.90;;;;;;5007402;28;20042;-78
2023/06/12 01:48:59;;;;;;;2.38;1.40;;;19.50;99.90;;;;;;4987851;28;20058;-78
2023/06/12 01:51:25;;;;;;;2.08;1.65;;;19.50;99.90;;;;;;4989014;28;20046;-77
2023/06/12 01:53:51;;;;;;;5.40;2.05;;;19.40;99.90;;;;;;4987989;28;20128;-77
2023/06/12 01:56:17;;;;;;;3.15;1.73;;;19.40;99.90;;;;;;4988451;28;20081;-75
2023/06/12 01:58:43;;;;;;;2.38;1.85;;;19.40;99.90;;;;;;4990588;28;20077;-78
2023/06/12 02:01:08;;;;;;;3.10;1.42;;;19.40;99.90;;;;;;4986989;28;20042;-78
2023/06/12 02:03:36;;;;;;;2.42;1.80;;;19.30;99.90;;;;;;4993376;28;20049;-75
2023/06/12 02:06:02;;;;;;;3.97;1.60;;;19.30;99.90;;;;;;5008650;28;20050;-77
2023/06/12 02:08:28;;;;;;;3.67;1.83;;;19.30;99.90;;;;;;5007839;28;20116;-76
2023/06/12 02:10:54;;;;;;;3.13;1.75;;;19.20;99.90;;;;;;4990668;28;20484;-76
2023/06/12 02:13:19;;;;;;;2.70;1.65;;;19.10;99.90;;;;;;4990543;28;20049;-75
2023/06/12 02:15:46;;;;;;;2.00;1.63;;;19.10;99.90;;;;;;4986169;28;20411;-76
2023/06/12 02:18:11;;;;;;;2.28;1.50;;;19.10;99.90;;;;;;4987447;28;20093;-76
2023/06/12 02:20:37;;;;;;;2.92;1.40;;;19.10;99.90;;;;;;4987928;28;20069;-77
2023/06/12 02:23:03;;;;;;;4.22;1.50;;;19.10;99.90;;;;;;4990373;28;20528;-77
2023/06/12 02:25:28;;;;;;;5.93;1.60;;;19.10;99.90;;;;;;4974311;28;20041;-76
2023/06/12 02:27:54;;;;;;;2.13;1.80;;;19.10;99.90;;;;;;5007701;28;20099;-77
2023/06/12 02:30:19;;;;;;;2.05;1.40;;;19.10;99.90;;;;;;4990013;28;20042;-75
2023/06/12 02:32:47;;;;;;;2.05;1.75;;;19.00;99.90;;;;;;4989176;28;20038;-76
2023/06/12 02:35:12;;;;;;;5.25;1.80;;;19.00;99.90;;;;;;5006881;28;20073;-76
2023/06/12 02:37:38;;;;;;;2.92;1.55;;;18.90;99.90;;;;;;5008293;28;20038;-77
2023/06/12 02:40:04;;;;;;;2.15;1.70;;;18.90;99.90;;;;;;5007553;28;20052;-75
2023/06/12 02:42:30;;;;;;;2.45;1.70;;;18.80;99.90;;;;;;5007193;28;20131;-76
2023/06/12 02:44:55;;;;;;;3.90;1.98;;;18.80;99.90;;;;;;4989283;28;20045;-77
2023/06/12 02:47:21;;;;;;;2.25;1.83;;;18.80;99.90;;;;;;4969563;28;20312;-77
2023/06/12 02:49:47;;;;;;;2.75;1.67;;;18.70;99.90;;;;;;4977811;28;20046;-76
2023/06/12 02:52:12;;;;;;;2.40;1.52;;;18.70;99.90;;;;;;4989775;28;20436;-77
2023/06/12 02:54:38;;;;;;;2.47;1.90;;;18.60;99.90;;;;;;5007896;28;20508;-75
2023/06/12 02:57:04;;;;;;;2.38;1.70;;;18.60;99.90;;;;;;4989982;28;20080;-76
2023/06/12 02:59:30;;;;;;;3.90;1.92;;;18.60;99.90;;;;;;4989697;28;20042;-76
2023/06/12 03:01:55;;;;;;;3.42;2.00;;;18.50;99.90;;;;;;4977325;28;20766;-76
2023/06/12 03:04:22;;;;;;;4.70;1.45;;;18.50;99.90;;;;;;5007050;28;20038;-77
2023/06/12 03:06:54;;;;;;;3.25;2.25;;;18.50;99.90;;;;;;5007217;28;20052;-77
2023/06/12 03:09:23;;;;;;;3.15;1.90;;;18.40;99.90;;;;;;5006179;28;20053;-78
2023/06/12 03:11:54;;;;;;;3.83;1.65;;;18.40;99.90;;;;;;4989724;28;20053;-78
2023/06/12 03:14:24;;;;;;;4.25;1.75;;;18.40;99.90;;;;;;5006517;28;20472;-76
2023/06/12 03:16:50;;;;;;;4.05;1.48;;;18.40;99.90;;;;;;5005660;28;20098;-77
2023/06/12 03:19:16;;;;;;;4.25;2.00;;;18.30;99.90;;;;;;5006430;28;20113;-78
2023/06/12 03:21:45;;;;;;;2.45;1.85;;;18.30;99.90;;;;;;5006657;28;20057;-77
2023/06/12 03:24:11;;;;;;;2.08;1.38;;;18.20;99.90;;;;;;4989380;28;20528;-77
2023/06/12 03:26:38;;;;;;;3.33;1.90;;;18.20;99.90;;;;;;4989231;28;20034;-77
2023/06/12 03:29:04;;;;;;;1.88;1.77;;;18.20;99.90;;;;;;4988997;28;20103;-77
2023/06/12 03:31:30;;;;;;;3.72;1.90;;;18.10;99.90;;;;;;4971913;28;20435;-77
2023/06/12 03:33:56;;;;;;;2.30;1.63;;;18.20;99.90;;;;;;5006708;28;20450;-77
2023/06/12 03:36:25;;;;;;;2.30;1.60;;;18.10;99.90;;;;;;5006069;28;20041;-74
2023/06/12 03:38:51;;;;;;;4.38;2.13;;;18.10;99.90;;;;;;4988582;28;20042;-76
2023/06/12 03:41:20;;;;;;;3.65;2.28;;;18.00;99.90;;;;;;4987055;28;20496;-76
2023/06/12 03:43:46;;;;;;;3.90;1.75;;;18.00;99.90;;;;;;5006261;28;20042;-77
2023/06/12 03:46:11;;;;;;;2.60;1.77;;;18.00;99.90;;;;;;5005144;28;20064;-76
2023/06/12 03:48:37;;;;;;;5.45;1.88;;;18.00;99.90;;;;;;5006669;28;20038;-77
2023/06/12 03:51:02;;;;;;;1.45;1.30;;;18.00;99.90;;;;;;4988623;28;20037;-77
2023/06/12 03:53:28;;;;;;;3.28;1.73;;;18.00;99.90;;;;;;4988269;28;20049;-77
2023/06/12 03:55:54;;;;;;;4.28;1.90;;;18.00;99.90;;;;;;4988754;28;20081;-77
2023/06/12 03:58:20;;;;;;;4.43;1.60;;;18.00;99.90;;;;;;5006103;28;20037;-77
2023/06/12 04:00:47;;;;;;;2.50;1.63;;;18.00;99.90;;;;;;4984546;28;20129;-77
2023/06/12 04:03:21;;;;;;;2.35;1.60;;;18.00;99.90;;;;;;4986250;28;20716;-76
2023/06/12 04:05:50;;;;;;;2.85;1.30;;;17.90;99.90;;;;;;4968928;28;20053;-75
2023/06/12 04:08:16;;;;;;;2.70;1.75;;;17.90;99.90;;;;;;4986036;28;20046;-76
2023/06/12 04:10:43;;;;;;;2.42;1.73;;;17.90;99.90;;;;;;4979685;28;20062;-75
2023/06/12 04:13:08;;;;;;;3.47;1.60;;;17.90;99.90;;;;;;5006684;28;20625;-77
2023/06/12 04:15:36;;;;;;;5.47;2.15;;;17.90;99.90;;;;;;4986699;28;20117;-77
2023/06/12 04:18:03;;;;;;;2.33;1.85;;;17.90;99.90;;;;;;5005659;28;20412;-77
2023/06/12 04:20:29;;;;;;;1.80;1.55;;;17.90;99.90;;;;;;4988079;28;20137;-78
2023/06/12 04:22:56;;;;;;;2.90;2.15;;;17.90;99.90;;;;;;5005599;28;20128;-77
2023/06/12 04:25:23;;;;;;;7.38;1.90;;;18.00;99.90;;;;;;5005448;28;20060;-75
2023/06/12 04:27:48;;;;;;;4.20;2.45;;;18.00;99.90;;;;;;4988341;28;20046;-78
2023/06/12 04:30:15;;;;;;;1.85;1.58;;;17.90;99.90;;;;;;4987167;28;20046;-78
2023/06/12 04:32:41;;;;;;;3.85;1.60;;;17.90;99.90;;;;;;5005726;28;20440;-77
2023/06/12 04:35:08;;;;;;;4.03;2.20;;;17.90;99.90;;;;;;5005894;28;20050;-78
2023/06/12 04:37:34;;;;;;;3.58;2.15;;;18.00;99.90;;;;;;4987069;28;20048;-77
2023/06/12 04:40:04;;;;;;;4.50;1.90;;;18.00;99.90;;;;;;4988090;28;20053;-77
2023/06/12 04:42:31;;;;;;;6.32;2.75;;;17.90;99.90;;;;;;5005104;28;20084;-76
2023/06/12 04:44:59;;;;;;;2.97;1.63;;;18.00;99.90;;;;;;5005211;28;20045;-76
2023/06/12 04:47:24;;;;;;;5.40;1.88;;;18.00;99.90;;;;;;4986438;28;20103;-77
2023/06/12 04:49:52;;;;;;;1.65;1.45;;;17.90;99.90;;;;;;5005635;28;20045;-77
2023/06/12 04:52:18;;;;;;;3.13;1.85;;;18.00;99.90;;;;;;5005022;28;20046;-77
2023/06/12 04:54:45;;;;;;;2.55;1.52;;;17.90;99.90;;;;;;4987599;28;20050;-76
2023/06/12 04:57:16;;;;;;;6.93;2.08;;;18.00;99.90;;;;;;5005222;28;20555;-78
2023/06/12 04:59:44;;;;;;;3.83;2.13;;;18.00;99.90;;;;;;4971783;28;20068;-76
2023/06/12 05:02:11;;;;;;;2.53;1.83;;;18.00;99.90;;;;;;4990902;28;20055;-76
2023/06/12 05:04:37;;;;;;;3.03;1.50;;;18.00;99.90;;;;;;4970166;28;20045;-75
2023/06/12 05:07:06;;;;;;;2.78;2.22;;;17.90;99.90;;;;;;4987606;28;20407;-75
2023/06/12 05:09:32;;;;;;;4.43;1.63;;;18.00;99.90;;;;;;4986755;28;20060;-77
2023/06/12 05:12:00;;;;;;;5.15;1.58;;;18.00;99.90;;;;;;4987302;28;20053;-75
2023/06/12 05:14:27;;;;;;;4.22;1.70;;;18.00;99.90;;;;;;4985719;28;20046;-76
2023/06/12 05:16:54;;;;;;;4.40;1.90;;;18.00;99.90;;;;;;4986173;28;20065;-76
2023/06/12 05:19:19;;;;;;;3.28;1.60;;;18.00;99.90;;;;;;4986451;28;20103;-76
2023/06/12 05:21:45;;;;;;;3.28;1.88;;;18.10;99.90;;;;;;4971219;28;20050;-75
2023/06/12 05:24:10;;;;;;;3.85;2.15;;;18.00;99.90;;;;;;4988021;28;20038;-75
2023/06/12 05:26:37;;;;;;;5.50;2.30;;;18.00;99.90;;;;;;4987343;28;20128;-75
2023/06/12 05:29:03;;;;;;;2.85;1.95;;;18.10;99.90;;;;;;5004522;28;20113;-76
2023/06/12 05:31:29;;;;;;;2.53;2.05;;;18.10;99.90;;;;;;5003902;28;20188;-75
2023/06/12 05:33:55;;;;;;;4.82;1.83;;;18.10;99.90;;;;;;5004947;28;20079;-75
2023/06/12 05:36:21;;;;;;;2.58;1.77;;;18.20;99.90;;;;;;4986699;28;20091;-76
2023/06/12 05:38:46;;;;;;;3.65;2.40;;;18.20;99.90;;;;;;5004874;28;20069;-81
2023/06/12 05:41:16;;;;;;;2.88;2.35;;;18.20;99.90;;;;;;4998410;28;20070;-75
2023/06/12 05:43:45;;;;;;;3.53;1.85;;;18.30;99.90;;;;;;5001234;28;20715;-75
2023/06/12 05:46:11;;;;;;;3.88;2.28;;;18.30;99.90;;;;;;5003685;28;20046;-75
2023/06/12 05:48:37;;;;;;;3.65;1.90;;;18.30;99.90;;;;;;5005011;28;20044;-75
2023/06/12 05:51:04;;;;;;;2.35;1.67;;;18.40;99.90;;;;;;5003580;28;20099;-75
2023/06/12 05:53:32;;;;;;;2.78;1.90;;;18.40;99.90;;;;;;5000848;28;20053;-76
2023/06/12 05:55:58;;;;;;;6.50;2.30;;;18.40;99.90;;;;;;5002726;28;20113;-75
2023/06/12 05:58:24;;;;;;;5.80;2.17;;;18.50;99.90;;;;;;5004050;28;20578;-75
2023/06/12 06:00:49;;;;;;;3.42;2.08;;;18.50;99.90;;;;;;4983270;28;20081;-75
2023/06/12 06:03:19;;;;;;;4.97;2.15;;;18.60;99.90;;;;;;4992864;28;20082;-76
2023/06/12 06:05:46;;;;;;;6.00;2.35;;;18.60;99.90;;;;;;4987283;28;20509;-76
2023/06/12 06:08:12;;;;;;;4.45;2.95;;;18.60;99.90;;;;;;5004392;28;20760;-76
2023/06/12 06:10:38;;;;;;;4.60;2.15;;;18.70;99.90;;;;;;4990274;28;20093;-75
2023/06/12 06:13:04;;;;;;;2.88;2.13;;;18.70;99.90;;;;;;4991101;28;20046;-77
2023/06/12 06:15:29;;;;;;;3.47;1.63;;;18.70;99.90;;;;;;4989550;28;20120;-77
2023/06/12 06:17:56;;;;;;;4.57;2.15;;;18.70;99.90;;;;;;4990916;28;20042;-77
2023/06/12 06:20:22;;;;;;;4.80;2.08;;;18.80;99.90;;;;;;5005802;28;20713;-77
2023/06/12 06:22:48;;;;;;;6.30;2.20;;;18.80;99.90;;;;;;4988570;28;20034;-75
2023/06/12 06:25:15;;;;;;;5.15;2.80;;;18.80;99.90;;;;;;4990229;28;20056;-75
2023/06/12 06:27:41;;;;;;;3.20;2.00;;;18.90;99.90;;;;;;4995382;28;20112;-75
2023/06/12 06:30:07;;;;;;;3.35;2.05;;;18.90;99.90;;;;;;5006824;28;20049;-74
2023/06/12 06:32:32;;;;;;;3.08;2.38;;;18.90;99.90;;;;;;5006401;28;20125;-75
2023/06/12 06:34:58;;;;;;;2.90;2.35;;;19.00;99.90;;;;;;5007169;28;20125;-75
2023/06/12 06:37:24;;;;;;;4.15;2.58;;;19.00;99.90;;;;;;4989359;28;20038;-75
2023/06/12 06:39:49;;;;;;;3.10;2.05;;;19.00;99.90;;;;;;4989371;28;20407;-75
2023/06/12 06:42:15;;;;;;;2.50;1.90;;;19.10;99.90;;;;;;5007055;28;20045;-75
2023/06/12 06:44:40;;;;;;;2.78;2.10;;;19.10;99.90;;;;;;4990062;28;20619;-74
2023/06/12 06:47:10;;;;;;;3.85;2.17;;;19.20;99.90;;;;;;5005681;28;20345;-75
2023/06/12 06:49:37;;;;;;;3.90;3.03;;;19.30;99.90;;;;;;5006664;28;20050;-75
2023/06/12 06:52:03;;;;;;;4.32;2.30;;;19.30;99.90;;;;;;4989325;28;20030;-74
2023/06/12 06:54:29;;;;;;;3.65;2.55;;;19.30;99.90;;;;;;5006520;28;20050;-75
2023/06/12 06:56:54;;;;;;;4.05;2.17;;;19.40;99.90;;;;;;5007160;28;20052;-75
2023/06/12 06:59:20;;;;;;;6.15;2.58;;;19.40;99.90;;;;;;4972817;28;20060;-75
2023/06/12 07:01:46;;;;;;;6.05;2.40;;;19.40;99.90;;;;;;4984915;28;20100;-74
2023/06/12 07:04:11;;;;;;;5.97;2.70;;;19.50;99.90;;;;;;5006741;28;20041;-74
2023/06/12 07:06:37;;;;;;;4.20;2.30;;;19.50;99.90;;;;;;5006939;28;20317;-75
2023/06/12 07:09:02;;;;;;;5.47;2.33;;;19.50;99.90;;;;;;5006232;28;20046;-73
2023/06/12 07:11:28;;;;;;;6.53;2.65;;;19.60;99.90;;;;;;4988843;28;20438;-75
2023/06/12 07:13:54;;;;;;;3.65;2.42;;;19.60;99.90;;;;;;4988789;28;20030;-75
2023/06/12 07:16:20;;;;;;;5.05;2.78;;;19.60;99.90;;;;;;4971600;28;20346;-75
2023/06/12 07:18:45;;;;;;;3.63;2.00;;;19.70;99.90;;;;;;5006253;28;20042;-75
2023/06/12 07:21:11;;;;;;;3.72;2.20;;;19.70;99.90;;;;;;4973058;28;20081;-75
2023/06/12 07:23:37;;;;;;;4.85;2.85;;;19.70;99.90;;;;;;4989049;28;20627;-76
2023/06/12 07:26:02;;;;;;;5.88;2.72;;;19.80;99.90;;;;;;5004878;28;20034;-75
2023/06/12 07:28:28;;;;;;;7.57;2.70;;;19.80;99.90;;;;;;4987396;28;20046;-74
2023/06/12 07:30:54;;;;;;;3.83;2.50;;;19.90;99.90;;;;;;5005756;28;20046;-75
2023/06/12 07:33:20;;;;;;;6.65;2.85;;;19.90;99.90;;;;;;5005709;28;20030;-74
2023/06/12 07:35:46;;;;;;;5.20;2.42;;;20.00;99.90;;;;;;5006878;28;20480;-74
2023/06/12 07:38:12;;;;;;;4.38;2.38;;;20.00;99.90;;;;;;4988789;28;20071;-75
2023/06/12 07:40:38;;;;;;;6.28;2.40;;;20.00;99.90;;;;;;5005322;28;20053;-75
2023/06/12 07:43:04;;;;;;;6.22;2.60;;;20.10;99.90;;;;;;5007159;28;20053;-74
2023/06/12 07:45:30;;;;;;;3.17;2.20;;;20.10;99.90;;;;;;5002342;28;20037;-74
2023/06/12 07:47:57;;;;;;;5.10;2.45;;;20.10;99.90;;;;;;4988857;28;20053;-74
2023/06/12 07:50:25;;;;;;;3.33;2.30;;;20.10;99.90;;;;;;5006014;28;20057;-74
2023/06/12 07:52:51;;;;;;;4.00;2.13;;;20.20;99.90;;;;;;4988524;28;20036;-74
2023/06/12 07:55:17;;;;;;;6.35;2.63;;;20.20;99.90;;;;;;5006328;28;20042;-74
2023/06/12 07:57:42;;;;;;;4.28;2.13;;;20.30;99.90;;;;;;5006084;28;20390;-74
2023/06/12 08:00:09;;;;;;;5.18;2.47;;;20.40;99.90;;;;;;5003808;28;20160;-73
2023/06/12 08:02:35;;;;;;;4.25;2.17;;;20.40;99.90;;;;;;4986722;28;20124;-74
2023/06/12 08:05:03;;;;;;;4.70;2.58;;;20.40;99.90;;;;;;4986936;28;20041;-75
2023/06/12 08:07:30;;;;;;;4.55;2.55;;;20.50;99.90;;;;;;5003591;28;20049;-75
2023/06/12 08:09:56;;;;;;;4.32;2.60;;;20.50;99.90;;;;;;5004869;28;20046;-74
2023/06/12 08:12:22;;;;;;;3.40;2.33;;;20.60;99.90;;;;;;4986360;28;20188;-73
2023/06/12 08:14:48;;;;;;;4.10;2.40;;;20.60;99.90;;;;;;4970120;28;20556;-73
2023/06/12 08:17:14;;;;;;;6.95;2.35;;;20.70;99.90;;;;;;5005471;28;20053;-74
2023/06/12 08:19:41;;;;;;;3.67;2.55;;;20.70;99.90;;;;;;5005537;28;20127;-73
2023/06/12 08:22:07;;;;;;;6.18;3.13;;;20.80;99.90;;;;;;4993606;28;20029;-73
2023/06/12 08:24:35;;;;;;;6.68;2.60;;;20.80;99.90;;;;;;4987535;28;20078;-73
2023/06/12 08:27:02;;;;;;;5.35;2.08;;;20.90;99.90;;;;;;4976997;28;20035;-73
2023/06/12 08:29:28;;;;;;;2.58;2.10;;;20.90;99.90;;;;;;5005243;28;20053;-73
2023/06/12 08:31:54;;;;;;;2.92;2.05;;;21.00;99.90;;;;;;4986365;28;20045;-73
2023/06/12 08:34:24;;;;;;;10.65;2.33;;;21.00;99.90;;;;;;5004982;28;20045;-74
2023/06/12 08:36:50;;;;;;;4.20;2.45;;;21.10;99.90;;;;;;4987707;28;20046;-74
2023/06/12 08:39:16;;;;;;;4.68;2.55;;;21.10;99.90;;;;;;4975465;28;20086;-74
2023/06/12 08:41:58;;;;;;;3.55;2.08;;;21.20;99.90;;;;;;4986674;28;20054;-73
2023/06/12 08:44:23;;;;;;;;;;;21.20;99.90;;;;;;5005418;28;20058;-75
2023/06/12 08:46:56;;;;;;;3.75;2.38;;;21.30;99.90;;;;;;5002990;28;19921;-74
2023/06/12 08:49:21;;;;;;;2.67;2.08;;;21.40;99.90;;;;;;5003803;28;20050;-73
2023/06/12 08:51:49;;;;;;;3.08;2.35;;;21.40;99.90;;;;;;4981045;28;20133;-74
2023/06/12 08:54:15;;;;;;;5.85;2.47;;;21.50;99.90;;;;;;5000770;28;20050;-74
2023/06/12 08:56:45;;;;;;;3.38;2.28;;;21.50;99.90;;;;;;4987708;28;20042;-73
2023/06/12 08:59:11;;;;;;;2.30;1.85;;;21.50;99.90;;;;;;4970983;28;20398;-74
2023/06/12 09:01:38;;;;;;;3.78;2.50;;;21.60;99.90;;;;;;4994633;28;20065;-73
2023/06/12 09:04:09;;;;;;;4.18;2.20;;;21.60;99.90;;;;;;4999339;28;20044;-73
2023/06/12 09:06:37;;;;;;;2.72;2.00;;;21.60;99.90;;;;;;4987004;28;20096;-74
2023/06/12 09:09:03;;;;;;;4.70;2.47;;;21.70;99.90;;;;;;5004866;28;20054;-74
2023/06/12 09:11:29;;;;;;;4.93;2.75;;;21.70;99.90;;;;;;5004551;28;20441;-74
2023/06/12 09:14:01;;;;;;;3.33;2.33;;;21.70;99.90;;;;;;4971089;28;20164;-73
2023/06/12 09:16:27;;;;;;;10.93;2.63;;;21.80;99.90;;;;;;4985983;28;20493;-74
2023/06/12 09:18:54;;;;;;;3.55;2.13;;;21.90;99.90;;;;;;4987317;28;20199;-74
2023/06/12 09:21:24;;;;;;;7.80;3.03;;;21.90;99.90;;;;;;5004470;28;20105;-74
2023/06/12 09:23:51;;;;;;;3.88;2.30;;;21.90;99.90;;;;;;4987532;28;20050;-73
2023/06/12 09:26:21;;;;;;;5.28;2.58;;;21.90;99.90;;;;;;4986730;28;20100;-73
2023/06/12 09:28:50;;;;;;;4.65;2.28;;;22.00;99.90;;;;;;4987430;28;20053;-73
2023/06/12 09:31:16;;;;;;;4.28;2.35;;;22.00;99.90;;;;;;4986054;28;20412;-74
2023/06/12 09:33:44;;;;;;;3.00;1.80;;;22.10;99.90;;;;;;4987183;28;20073;-74
2023/06/12 09:36:12;;;;;;;13.13;2.92;;;22.20;99.90;;;;;;5005133;28;20404;-73
2023/06/12 09:38:38;;;;;;;2.55;2.33;;;22.20;99.90;;;;;;4987970;28;20046;-73
2023/06/12 09:41:06;;;;;;;5.63;2.65;;;22.20;99.90;;;;;;4986274;28;20092;-73
2023/06/12 09:43:32;;;;;;;4.15;2.50;;;22.30;99.90;;;;;;5006485;28;20047;-73
2023/06/12 09:46:00;;;;;;;3.85;2.47;;;22.30;99.90;;;;;;5007295;28;20270;-78
2023/06/12 09:48:35;;;;;;;4.43;2.40;;;22.30;99.90;;;;;;4988994;28;20037;-73
2023/06/12 09:51:08;;;;;;;3.25;2.40;;;22.30;99.90;;;;;;4990931;28;20634;-73
2023/06/12 09:53:39;;;;;;;3.20;2.05;;;22.40;99.90;;;;;;4990408;28;20073;-72
2023/06/12 09:56:07;;;;;;;2.92;2.25;;;22.40;99.90;;;;;;4990745;28;20118;-72
2023/06/12 09:58:37;;;;;;;3.35;2.25;;;22.40;99.90;;;;;;4990658;28;20037;-72
2023/06/12 10:01:08;;;;;;;4.53;2.28;;;22.50;99.90;;;;;;4985086;28;20258;-72
2023/06/12 10:03:41;;;;;;;2.47;2.08;;;22.60;99.90;;;;;;4962825;28;20045;-72
2023/06/12 10:06:10;;;;;;;3.15;2.00;;;22.50;99.90;;;;;;5008528;28;20061;-72
2023/06/12 10:08:36;;;;;;;3.40;2.28;;;22.70;99.90;;;;;;5007680;28;20464;-72
2023/06/12 10:11:07;;;;;;;3.83;2.45;;;22.70;99.90;;;;;;4990486;28;20093;-75
2023/06/12 10:13:35;;;;;;;3.80;2.10;;;22.70;99.90;;;;;;5007829;28;20077;-73
2023/06/12 10:16:01;;;;;;;5.70;2.58;;;22.70;99.90;;;;;;5007082;28;20037;-76
2023/06/12 10:18:28;;;;;;;4.60;1.90;;;22.70;99.90;;;;;;4990064;28;20037;-73
2023/06/12 10:20:54;;;;;;;2.90;2.53;;;22.70;99.90;;;;;;5006935;28;20037;-73
2023/06/12 10:23:22;;;;;;;3.75;2.30;;;22.80;99.90;;;;;;5007509;28;20087;-73
2023/06/12 10:25:48;;;;;;;2.80;2.35;;;22.80;99.90;;;;;;5007960;28;20037;-73
2023/06/12 10:28:15;;;;;;;2.38;2.15;;;22.80;99.90;;;;;;4989882;28;20497;-74
2023/06/12 10:31:11;;;;;;;2.10;1.90;;;22.90;99.90;;;;;;5007271;28;20420;-73
2023/06/12 10:33:37;;;;;;;3.10;1.98;;;22.90;99.90;;;;;;4989143;28;20054;-73
2023/06/12 10:36:11;;;;;;;2.40;1.98;;;23.00;99.90;;;;;;4996248;28;20374;-73
2023/06/12 10:38:47;;;;;;;3.03;2.40;;;23.10;99.90;;;;;;4988071;28;20489;-73
2023/06/12 10:41:12;;;;;;;3.45;2.47;;;23.10;99.90;;;;;;4988579;28;20124;-74
2023/06/12 10:43:39;;;;;;;2.17;1.60;;;23.10;99.90;;;;;;5005565;28;20482;-74
2023/06/12 10:46:11;;;;;;;4.03;2.33;;;23.10;99.90;;;;;;5001091;28;20100;-72
2023/06/12 10:48:46;;;;;;;;;;;23.10;99.90;;;;;;4974266;28;20038;-75
2023/06/12 10:51:12;;;;;;;3.33;1.80;;;23.20;99.30;;;;;;5002154;28;19928;-74
2023/06/12 10:53:44;;;;;;;2.83;2.08;;;23.20;99.90;;;;;;5004390;28;20026;-74
2023/06/12 10:56:10;;;;;;;3.50;2.13;;;23.20;99.90;;;;;;4980470;28;20076;-79
2023/06/12 10:58:42;;;;;;;2.35;1.55;;;23.20;99.90;;;;;;4974084;28;20045;-73
2023/06/12 11:01:09;;;;;;;;;;;23.20;99.90;;;;;;4987353;28;20042;-74
2023/06/12 11:03:39;;;;;;;4.45;2.20;;;23.20;98.40;;;;;;4989540;28;20202;-73
2023/06/12 11:06:13;;;;;;;2.28;1.85;;;23.30;99.90;;;;;;4989250;28;20050;-73
2023/06/12 11:08:42;;;;;;;4.32;2.00;;;23.30;99.90;;;;;;4988164;28;20061;-74
2023/06/12 11:11:11;;;;;;;2.22;1.60;;;23.40;99.90;;;;;;4986821;28;20049;-75
2023/06/12 11:13:41;;;;;;;2.13;1.70;;;23.50;99.90;;;;;;4976081;28;20042;-75
2023/06/12 11:16:07;;;;;;;2.13;1.90;;;23.50;99.90;;;;;;4972796;28;20041;-75
2023/06/12 11:18:33;;;;;;;2.72;2.00;;;23.50;99.90;;;;;;5006312;28;20068;-75
2023/06/12 11:20:58;;;;;;;3.00;1.95;;;23.50;99.90;;;;;;4972538;28;20038;-76
2023/06/12 11:23:26;;;;;;;4.57;2.30;;;23.50;99.90;;;;;;4987293;28;20153;-75
2023/06/12 11:25:54;;;;;;;1.67;1.55;;;23.60;99.90;;;;;;4983480;28;20081;-75
2023/06/12 11:28:23;;;;;;;2.42;1.77;;;23.60;99.90;;;;;;4985896;28;20041;-75
2023/06/12 11:30:50;;;;;;;3.05;1.80;;;23.60;99.90;;;;;;4987068;28;20061;-75
2023/06/12 11:33:17;;;;;;;2.90;1.80;;;23.60;99.90;;;;;;4982801;28;20045;-73
2023/06/12 11:35:44;;;;;;;2.53;1.98;;;23.60;99.90;;;;;;5005967;28;20069;-74
2023/06/12 11:38:14;;;;;;;1.73;1.45;;;23.70;99.90;;;;;;5006605;28;20045;-74
2023/06/12 11:40:41;;;;;;;2.10;1.70;;;23.70;98.00;;;;;;5005836;28;20050;-73
2023/06/12 11:43:07;;;;;;;2.25;1.38;;;23.80;99.50;;;;;;5006430;28;20069;-73
2023/06/12 11:45:33;;;;;;;2.50;1.50;;;23.80;99.10;;;;;;4987816;28;20475;-73
2023/06/12 11:47:59;;;;;;;4.03;1.90;;;23.90;98.20;;;;;;5006741;28;20129;-74
2023/06/12 11:50:25;;;;;;;2.95;1.83;;;23.90;98.00;;;;;;5005221;28;20294;-74
2023/06/12 11:52:52;;;;;;;5.65;2.38;;;23.90;97.90;;;;;;5006664;28;20038;-81
2023/06/12 11:55:17;;;;;;;2.03;1.60;;;23.90;97.80;;;;;;4988938;28;20061;-73
2023/06/12 11:57:48;;;;;;;1.92;1.50;;;23.90;97.70;;;;;;4984814;28;20489;-72
2023/06/12 12:00:17;;;;;;;2.50;1.70;;;23.90;96.00;;;;;;4979045;28;20307;-72
2023/06/12 12:02:46;;;;;;;3.78;1.77;;;23.90;96.30;;;;;;5004715;28;20496;-72
2023/06/12 12:05:12;;;;;;;3.38;1.77;;;24.00;96.40;;;;;;5005923;28;20049;-72
2023/06/12 12:07:39;;;;;;;3.70;2.22;;;24.00;96.60;;;;;;4995869;28;20102;-72
2023/06/12 12:10:06;;;;;;;3.15;2.17;;;24.10;96.20;;;;;;4987745;28;20097;-72
2023/06/12 12:12:58;;;;;;;3.15;2.33;;;24.10;96.30;;;;;;4976711;28;20319;-73
2023/06/12 12:15:23;;;;;;;2.97;1.73;;;24.10;87.90;;;;;;4962151;28;20060;-73
2023/06/12 12:17:49;;;;;;;2.70;2.45;;;24.20;96.00;;;;;;4972224;28;20136;-72
2023/06/12 12:20:23;;;;;;;2.72;1.98;;;24.30;95.70;;;;;;5005634;28;20045;-71
2023/06/12 12:22:50;;;;;;;2.20;2.00;;;24.30;93.40;;;;;;4972691;28;20508;-72
2023/06/12 12:25:21;;;;;;;3.35;2.10;;;24.30;95.20;;;;;;4987225;28;20045;-72
2023/06/12 12:27:49;;;;;;;3.20;2.20;;;24.40;95.30;;;;;;4983568;28;20492;-72
2023/06/12 12:30:15;;;;;;;3.95;2.60;;;24.40;95.40;;;;;;4986817;28;20060;-72
2023/06/12 12:32:47;;;;;;;4.15;2.38;;;24.40;95.50;;;;;;4987300;28;20054;-69
2023/06/12 12:35:17;;;;;;;4.32;2.60;;;24.50;93.80;;;;;;4987816;28;20071;-69
2023/06/12 12:37:43;;;;;;;4.38;2.25;;;24.50;95.50;;;;;;4988132;28;20130;-70
2023/06/12 12:40:11;;;;;;;3.50;2.83;;;24.50;95.80;;;;;;5001340;28;20033;-69
2023/06/12 12:42:41;;;;;;;5.18;2.47;;;24.50;95.60;;;;;;4987950;28;20511;-70
2023/06/12 12:45:10;;;;;;;3.60;2.63;;;24.50;94.20;;;;;;4987791;28;20461;-70
2023/06/12 12:47:36;;;;;;;4.65;3.25;;;24.60;95.70;;;;;;5005346;28;20144;-70
2023/06/12 12:50:07;;;;;;;3.10;2.50;;;24.60;95.90;;;;;;4987614;28;20274;-69